createdAt,value
2023-02-19T00:02:50.986Z,10.19
2023-02-19T00:06:54.472Z,10.13
2023-02-19T00:11:02.415Z,10.14
2023-02-19T00:15:08.096Z,10.14
2023-02-19T00:19:15.730Z,10.14
2023-02-19T00:23:19.026Z,10.13
2023-02-19T00:27:22.192Z,10.16
2023-02-19T00:31:32.591Z,10.14
2023-02-19T00:35:36.997Z,10.20
2023-02-19T00:39:40.224Z,10.23
2023-02-19T00:43:44.066Z,10.24
2023-02-19T00:47:48.630Z,10.29
2023-02-19T00:51:53.387Z,10.30
2023-02-19T00:55:57.072Z,10.29
2023-02-19T01:00:01.543Z,10.32
2023-02-19T01:04:07.120Z,10.33
2023-02-19T01:08:10.814Z,10.34
2023-02-19T01:12:14.088Z,10.36
2023-02-19T01:16:19.327Z,10.41
2023-02-19T01:20:23.986Z,10.43
2023-02-19T01:24:27.268Z,10.48
2023-02-19T01:28:30.706Z,10.51
2023-02-19T01:32:34.340Z,10.47
2023-02-19T01:36:39.041Z,10.53
2023-02-19T01:40:44.328Z,10.50
2023-02-19T01:45:25.080Z,10.47
2023-02-19T01:49:33.428Z,10.48
2023-02-19T01:53:43.152Z,10.51
2023-02-19T01:57:49.686Z,10.50
2023-02-19T02:01:53.756Z,10.51
2023-02-19T02:06:01.712Z,10.52
2023-02-19T02:10:20.852Z,10.49
2023-02-19T02:14:28.934Z,10.45
2023-02-19T02:18:51.438Z,10.51
2023-02-19T02:23:05.219Z,10.49
2023-02-19T02:27:33.548Z,10.52
2023-02-19T02:31:42.278Z,10.51
2023-02-19T02:35:51.486Z,10.49
2023-02-19T02:39:59.114Z,10.51
2023-02-19T02:44:02.841Z,10.47
2023-02-19T02:48:18.169Z,10.47
2023-02-19T02:52:37.081Z,10.47
2023-02-19T02:56:42.395Z,10.52
2023-02-19T03:01:07.912Z,10.53
2023-02-19T03:05:33.938Z,10.49
2023-02-19T03:09:41.393Z,10.49
2023-02-19T03:14:03.132Z,10.48
2023-02-19T03:18:28.813Z,10.49
2023-02-19T03:22:37.568Z,10.47
2023-02-19T03:26:43.306Z,10.48
2023-02-19T03:30:52.016Z,10.40
2023-02-19T03:35:00.855Z,10.38
2023-02-19T03:39:07.946Z,10.35
2023-02-19T03:43:21.228Z,10.34
2023-02-19T03:47:28.658Z,10.26
2023-02-19T03:51:39.262Z,10.03
2023-02-19T03:55:55.384Z,9.95
2023-02-19T04:00:05.025Z,9.92
2023-02-19T04:04:21.302Z,9.88
2023-02-19T04:08:25.639Z,9.87
2023-02-19T04:12:40.591Z,9.83
2023-02-19T04:16:48.554Z,9.84
2023-02-19T04:20:52.244Z,9.81
2023-02-19T04:24:56.808Z,9.77
2023-02-19T04:29:04.516Z,9.74
2023-02-19T04:33:07.869Z,9.74
2023-02-19T04:37:11.357Z,9.68
2023-02-19T04:41:14.880Z,9.68
2023-02-19T04:45:20.253Z,9.62
2023-02-19T04:49:23.427Z,9.66
2023-02-19T04:53:27.480Z,9.64
2023-02-19T04:57:30.688Z,9.60
2023-02-19T05:01:35.429Z,9.58
2023-02-19T05:05:38.775Z,9.57
2023-02-19T05:09:41.970Z,9.53
2023-02-19T05:13:45.697Z,9.52
2023-02-19T05:17:50.319Z,9.51
2023-02-19T05:21:53.568Z,9.51
2023-02-19T05:25:56.877Z,9.47
2023-02-19T05:30:00.388Z,9.43
2023-02-19T05:34:04.929Z,9.42
2023-02-19T05:38:08.264Z,9.36
2023-02-19T05:42:11.381Z,9.35
2023-02-19T05:46:16.595Z,9.36
2023-02-19T05:50:21.352Z,9.36
2023-02-19T05:54:24.601Z,9.32
2023-02-19T05:58:28.447Z,9.30
2023-02-19T06:02:31.596Z,9.27
2023-02-19T06:06:37.239Z,9.24
2023-02-19T06:10:41.477Z,9.27
2023-02-19T06:14:44.803Z,9.24
2023-02-19T06:18:48.041Z,9.23
2023-02-19T06:22:53.222Z,9.21
2023-02-19T06:26:56.411Z,9.19
2023-02-19T06:30:59.947Z,9.15
2023-02-19T06:35:03.618Z,9.15
2023-02-19T06:39:08.529Z,9.13
2023-02-19T06:43:11.978Z,9.10
2023-02-19T06:47:15.500Z,9.10
2023-02-19T06:51:23.853Z,9.10
2023-02-19T06:55:28.725Z,9.08
2023-02-19T06:59:32.166Z,9.12
2023-02-19T07:03:35.406Z,9.12
2023-02-19T07:07:38.569Z,9.13
2023-02-19T07:11:43.360Z,9.11
2023-02-19T07:15:46.508Z,9.14
2023-02-19T07:19:49.819Z,9.15
2023-02-19T07:23:53.459Z,9.16
2023-02-19T07:27:58.082Z,9.19
2023-02-19T07:32:01.558Z,9.21
2023-02-19T07:36:07.452Z,9.22
2023-02-19T07:40:11.444Z,9.25
2023-02-19T07:44:16.915Z,9.27
2023-02-19T07:48:20.586Z,9.28
2023-02-19T07:52:23.862Z,9.30
2023-02-19T07:56:28.880Z,9.35
2023-02-19T08:00:33.550Z,9.40
2023-02-19T08:04:36.850Z,9.43
2023-02-19T08:08:40.619Z,9.46
2023-02-19T08:13:01.532Z,9.53
2023-02-19T08:17:06.681Z,9.67
2023-02-19T08:21:12.460Z,9.77
2023-02-19T08:25:15.748Z,9.81
2023-02-19T08:29:19.038Z,9.82
2023-02-19T08:33:23.522Z,9.85
2023-02-19T08:37:26.750Z,9.74
2023-02-19T08:41:29.964Z,9.79
2023-02-19T08:45:33.777Z,9.74
2023-02-19T08:49:38.386Z,9.62
2023-02-19T08:53:42.513Z,9.42
2023-02-19T08:57:45.899Z,9.37
2023-02-19T09:01:49.167Z,9.22
2023-02-19T09:05:54.201Z,9.17
2023-02-19T09:09:57.515Z,9.17
2023-02-19T09:14:02.241Z,9.14
2023-02-19T09:18:05.850Z,9.18
2023-02-19T09:22:10.552Z,9.18
2023-02-19T09:26:14.260Z,9.19
2023-02-19T09:30:17.565Z,9.25
2023-02-19T09:34:21.223Z,9.27
2023-02-19T09:38:25.715Z,9.30
2023-02-19T09:42:32.304Z,9.50
2023-02-19T09:46:41.371Z,9.41
2023-02-19T09:50:50.039Z,9.38
2023-02-19T09:54:59.364Z,9.47
2023-02-19T09:59:02.953Z,9.56
2023-02-19T10:03:08.770Z,9.56
2023-02-19T10:07:14.508Z,9.65
2023-02-19T10:11:20.144Z,9.67
2023-02-19T10:15:29.485Z,9.70
2023-02-19T10:19:33.251Z,9.88
2023-02-19T10:23:36.506Z,10.06
2023-02-19T10:27:41.032Z,10.03
2023-02-19T10:31:44.236Z,9.95
2023-02-19T10:35:55.945Z,9.84
2023-02-19T10:39:59.296Z,9.65
2023-02-19T10:44:08.039Z,9.47
2023-02-19T10:48:25.956Z,9.57
2023-02-19T10:52:34.468Z,9.76
2023-02-19T10:56:40.832Z,9.85
2023-02-19T11:00:46.246Z,10.02
2023-02-19T11:05:06.061Z,10.21
2023-02-19T11:09:26.030Z,10.32
2023-02-19T11:13:32.921Z,10.51
2023-02-19T11:17:38.098Z,10.66
2023-02-19T11:21:41.416Z,10.83
2023-02-19T11:25:47.635Z,11.41
2023-02-19T11:29:51.393Z,11.48
2023-02-19T11:34:00.594Z,11.66
2023-02-19T11:38:03.784Z,11.81
2023-02-19T11:42:24.467Z,11.57
2023-02-19T11:46:46.529Z,11.22
2023-02-19T11:51:11.294Z,11.02
2023-02-19T11:55:22.535Z,10.94
2023-02-19T11:59:36.600Z,10.95
2023-02-19T12:04:19.690Z,10.93
2023-02-19T12:08:41.709Z,10.96
2023-02-19T12:13:00.636Z,11.03
2023-02-19T12:17:14.353Z,11.03
2023-02-19T12:21:27.968Z,11.14
2023-02-19T12:25:47.756Z,11.23
2023-02-19T12:30:15.945Z,11.17
2023-02-19T12:34:39.554Z,10.96
2023-02-19T12:38:46.467Z,10.98
2023-02-19T12:43:04.195Z,10.98
2023-02-19T12:47:11.244Z,11.21
2023-02-19T12:51:22.678Z,11.35
2023-02-19T12:55:29.392Z,11.27
2023-02-19T12:59:38.823Z,11.01
2023-02-19T13:03:49.308Z,10.73
2023-02-19T13:07:59.612Z,10.72
2023-02-19T13:12:08.417Z,10.48
2023-02-19T13:16:20.176Z,10.39
2023-02-19T13:20:27.481Z,10.02
2023-02-19T13:24:36.038Z,9.73
2023-02-19T13:28:54.083Z,9.53
2023-02-19T13:33:06.419Z,9.56
2023-02-19T13:37:11.301Z,9.64
2023-02-19T13:41:27.962Z,9.72
2023-02-19T13:45:35.935Z,9.76
2023-02-19T13:49:43.454Z,9.78
2023-02-19T13:54:00.286Z,9.73
2023-02-19T13:58:41.688Z,9.76
2023-02-19T14:02:45.129Z,9.68
2023-02-19T14:07:29.493Z,9.75
2023-02-19T14:12:07.167Z,9.79
2023-02-19T14:16:30.954Z,9.78
2023-02-19T14:20:47.921Z,9.79
2023-02-19T14:24:52.432Z,9.84
2023-02-19T14:28:57.699Z,9.76
2023-02-19T14:33:10.582Z,9.75
2023-02-19T14:37:20.480Z,9.67
2023-02-19T14:41:25.617Z,9.71
2023-02-19T14:45:33.504Z,9.84
2023-02-19T14:49:44.056Z,9.82
2023-02-19T14:53:47.775Z,9.76
2023-02-19T14:57:54.269Z,9.75
2023-02-19T15:02:01.229Z,9.74
2023-02-19T15:06:09.836Z,9.76
2023-02-19T15:10:15.532Z,9.76
2023-02-19T15:14:23.856Z,9.71
2023-02-19T15:18:30.042Z,9.66
2023-02-19T15:22:34.133Z,9.62
2023-02-19T15:26:40.677Z,9.62
2023-02-19T15:30:43.910Z,9.69
2023-02-19T15:34:57.015Z,9.69
2023-02-19T15:39:03.097Z,9.75
2023-02-19T15:43:06.588Z,9.78
2023-02-19T15:47:16.689Z,9.73
2023-02-19T15:51:26.982Z,9.66
2023-02-19T15:55:37.106Z,9.59
2023-02-19T15:59:45.009Z,9.60
2023-02-19T16:03:49.133Z,9.50
2023-02-19T16:08:16.945Z,9.41
2023-02-19T16:12:22.050Z,9.39
2023-02-19T16:16:29.922Z,9.30
2023-02-19T16:20:35.836Z,9.30
2023-02-19T16:24:45.759Z,9.26
2023-02-19T16:28:52.664Z,9.19
2023-02-19T16:33:21.593Z,9.10
2023-02-19T16:37:36.594Z,9.02
2023-02-19T16:42:14.668Z,8.97
2023-02-19T16:46:18.109Z,8.87
2023-02-19T16:50:24.700Z,8.86
2023-02-19T16:54:27.953Z,8.84
2023-02-19T16:58:33.102Z,8.79
2023-02-19T17:02:36.258Z,8.70
2023-02-19T17:06:40.379Z,8.63
2023-02-19T17:10:43.546Z,8.60
2023-02-19T17:14:48.179Z,8.57
2023-02-19T17:18:52.245Z,8.60
2023-02-19T17:22:55.392Z,8.51
2023-02-19T17:26:58.516Z,8.43
2023-02-19T17:31:03.311Z,8.37
2023-02-19T17:35:07.035Z,8.38
2023-02-19T17:39:15.966Z,8.32
2023-02-19T17:43:19.036Z,8.35
2023-02-19T17:47:24.919Z,8.36
2023-02-19T17:51:28.146Z,8.34
2023-02-19T17:55:31.436Z,8.28
2023-02-19T17:59:34.642Z,8.30
2023-02-19T18:03:39.670Z,8.30
2023-02-19T18:07:43.622Z,8.26
2023-02-19T18:11:47.309Z,8.27
2023-02-19T18:15:50.430Z,8.18
2023-02-19T18:19:55.248Z,8.08
2023-02-19T18:23:58.404Z,7.90
2023-02-19T18:28:01.822Z,7.87
2023-02-19T18:32:05.081Z,7.87
2023-02-19T18:36:12.795Z,7.80
2023-02-19T18:40:16.517Z,7.74
2023-02-19T18:44:21.297Z,7.73
2023-02-19T18:48:24.833Z,7.58
2023-02-19T18:52:29.770Z,7.52
2023-02-19T18:56:33.801Z,7.40
2023-02-19T19:00:37.610Z,7.34
2023-02-19T19:04:41.417Z,7.30
2023-02-19T19:08:47.313Z,7.23
2023-02-19T19:12:51.549Z,7.18
2023-02-19T19:16:54.680Z,7.09
2023-02-19T19:21:03.236Z,7.07
2023-02-19T19:25:09.835Z,7.02
2023-02-19T19:29:14.656Z,7.01
2023-02-19T19:33:17.954Z,7.00
2023-02-19T19:37:21.078Z,6.98
2023-02-19T19:41:25.865Z,6.92
2023-02-19T19:45:29.125Z,6.93
2023-02-19T19:49:33.492Z,6.92
2023-02-19T19:53:36.753Z,6.87
2023-02-19T19:57:41.919Z,6.83
2023-02-19T20:01:50.240Z,6.75
2023-02-19T20:05:54.124Z,6.70
2023-02-19T20:09:57.541Z,6.68
2023-02-19T20:14:01.964Z,6.66
2023-02-19T20:18:05.598Z,6.73
2023-02-19T20:22:08.799Z,6.70
2023-02-19T20:26:11.973Z,6.63
2023-02-19T20:30:17.946Z,6.60
2023-02-19T20:34:21.583Z,6.52
2023-02-19T20:38:25.306Z,6.46
2023-02-19T20:42:28.472Z,6.41
2023-02-19T20:46:33.100Z,6.29
2023-02-19T20:50:36.361Z,6.21
2023-02-19T20:54:39.634Z,5.92
2023-02-19T20:58:43.862Z,6.01
2023-02-19T21:02:50.629Z,5.93
2023-02-19T21:06:54.311Z,5.91
2023-02-19T21:10:57.436Z,5.89
2023-02-19T21:15:01.050Z,5.86
2023-02-19T21:19:05.564Z,5.81
2023-02-19T21:23:08.743Z,5.77
2023-02-19T21:27:11.865Z,5.70
2023-02-19T21:31:15.292Z,5.70
2023-02-19T21:35:19.875Z,5.61
2023-02-19T21:39:24.951Z,5.61
2023-02-19T21:43:29.691Z,5.61
2023-02-19T21:47:33.116Z,5.50
2023-02-19T21:51:40.463Z,5.56
2023-02-19T21:55:56.573Z,5.41
2023-02-19T22:00:01.680Z,5.39
2023-02-19T22:04:09.167Z,5.38
2023-02-19T22:08:15.659Z,5.43
2023-02-19T22:12:19.709Z,5.48
2023-02-19T22:16:23.878Z,5.52
2023-02-19T22:20:27.331Z,5.60
2023-02-19T22:24:31.799Z,5.49
2023-02-19T22:28:35.150Z,5.47
2023-02-19T22:32:39.126Z,5.50
2023-02-19T22:36:43.551Z,5.46
2023-02-19T22:40:47.953Z,5.43
2023-02-19T22:44:51.807Z,5.41
2023-02-19T22:48:54.936Z,5.43
2023-02-19T22:52:58.118Z,5.40
2023-02-19T22:57:02.522Z,5.47
2023-02-19T23:01:07.107Z,5.57
2023-02-19T23:05:11.004Z,5.53
2023-02-19T23:09:17.161Z,5.61
2023-02-19T23:13:21.627Z,5.64
2023-02-19T23:17:24.639Z,5.69
2023-02-19T23:21:29.558Z,5.76
2023-02-19T23:25:32.616Z,5.83
2023-02-19T23:29:37.028Z,5.81
2023-02-19T23:33:41.470Z,5.81
2023-02-19T23:37:44.533Z,5.85
2023-02-19T23:41:48.990Z,5.76
2023-02-19T23:45:54.032Z,5.79
2023-02-19T23:49:57.232Z,5.73
2023-02-19T23:54:00.405Z,5.64
2023-02-19T23:58:03.539Z,5.65
